ARG1962 SAAV-SABE
Flight info
| Callsign | ARG1962 |
|---|---|
| Flight time | 0h 39m |
| Altitude | 30000 |
| Route | PAR UW20 ROS/N0448F290 UT672 MULTA UW24 SNT SNT9R |
| Aircraft | B38M/M-MSDFGHILORVW/SB1 |
Departure
| Time | 2026-05-04 23:03 |
|---|---|
| Airport | Sauce Viejo Airport (SAAV) |
Arrival
| Time | 2026-05-04 23:42 |
|---|---|
| Airport | Aeroparque Jorge Newbery (SABE) |
| Time | Latitude | Longitude | Altitude | Speed | Heading |
|---|---|---|---|---|---|
| 2026-05-04 22:36 | -31.70882 | -60.80659 | 61 ft | 0 kts | 160° |
| 2026-05-04 22:57 | -31.70883 | -60.80659 | 67 ft | 1 kts | 166° |
| 2026-05-04 22:58 | -31.70893 | -60.80673 | 67 ft | 5 kts | 258° |
| 2026-05-04 22:58 | -31.70898 | -60.80714 | 61 ft | 5 kts | 225° |
| 2026-05-04 22:58 | -31.70937 | -60.80738 | 67 ft | 8 kts | 205° |
| 2026-05-04 22:58 | -31.70978 | -60.80766 | 65 ft | 6 kts | 240° |
| 2026-05-04 22:59 | -31.70972 | -60.80818 | 67 ft | 8 kts | 287° |
| 2026-05-04 22:59 | -31.70938 | -60.80927 | 66 ft | 20 kts | 290° |
| 2026-05-04 22:59 | -31.70930 | -60.81054 | 64 ft | 15 kts | 216° |
| 2026-05-04 22:59 | -31.71028 | -60.81105 | 61 ft | 16 kts | 203° |
| 2026-05-04 23:00 | -31.71143 | -60.81160 | 63 ft | 21 kts | 202° |
| 2026-05-04 23:00 | -31.71319 | -60.81246 | 61 ft | 33 kts | 203° |
| 2026-05-04 23:00 | -31.71532 | -60.81351 | 61 ft | 30 kts | 202° |
| 2026-05-04 23:00 | -31.71730 | -60.81446 | 58 ft | 32 kts | 204° |
| 2026-05-04 23:01 | -31.71900 | -60.81534 | 66 ft | 16 kts | 202° |
| 2026-05-04 23:01 | -31.71994 | -60.81576 | 66 ft | 11 kts | 186° |
| 2026-05-04 23:01 | -31.72035 | -60.81582 | 67 ft | 2 kts | 233° |
| 2026-05-04 23:01 | -31.72035 | -60.81588 | 67 ft | 1 kts | 278° |
| 2026-05-04 23:02 | -31.72022 | -60.81596 | 63 ft | 5 kts | 7° |
| 2026-05-04 23:02 | -31.71966 | -60.81565 | 61 ft | 11 kts | 22° |
| 2026-05-04 23:02 | -31.71786 | -60.81476 | 65 ft | 64 kts | 22° |
| 2026-05-04 23:02 | -31.71124 | -60.81148 | 61 ft | 139 kts | 22° |
| 2026-05-04 23:03 | -31.70063 | -60.80609 | 281 ft | 180 kts | 26° |
| 2026-05-04 23:03 | -31.68864 | -60.79981 | 978 ft | 194 kts | 27° |
| 2026-05-04 23:03 | -31.67712 | -60.79084 | 1620 ft | 208 kts | 42° |
| 2026-05-04 23:03 | -31.67094 | -60.77501 | 2270 ft | 233 kts | 84° |
| 2026-05-04 23:04 | -31.67607 | -60.75648 | 3070 ft | 253 kts | 126° |
| 2026-05-04 23:04 | -31.69094 | -60.74441 | 3695 ft | 272 kts | 166° |
| 2026-05-04 23:04 | -31.71003 | -60.74185 | 4419 ft | 284 kts | 177° |
| 2026-05-04 23:04 | -31.72929 | -60.73501 | 4512 ft | 293 kts | 147° |
| 2026-05-04 23:05 | -31.74302 | -60.71819 | 4626 ft | 291 kts | 117° |
| 2026-05-04 23:05 | -31.74935 | -60.69591 | 4773 ft | 289 kts | 96° |
| 2026-05-04 23:05 | -31.75474 | -60.67310 | 4808 ft | 293 kts | 118° |
| 2026-05-04 23:05 | -31.76875 | -60.65616 | 4841 ft | 292 kts | 152° |
| 2026-05-04 23:06 | -31.78785 | -60.64843 | 4891 ft | 292 kts | 166° |
| 2026-05-04 23:06 | -31.80722 | -60.64083 | 4892 ft | 293 kts | 162° |
| 2026-05-04 23:06 | -31.82629 | -60.63248 | 4892 ft | 294 kts | 161° |
| 2026-05-04 23:06 | -31.84542 | -60.62370 | 5101 ft | 294 kts | 160° |
| 2026-05-04 23:07 | -31.86432 | -60.61483 | 6168 ft | 293 kts | 160° |
| 2026-05-04 23:07 | -31.88333 | -60.60578 | 7077 ft | 294 kts | 160° |
| 2026-05-04 23:07 | -31.90202 | -60.59683 | 8012 ft | 295 kts | 160° |
| 2026-05-04 23:07 | -31.92109 | -60.58762 | 8941 ft | 296 kts | 160° |
| 2026-05-04 23:08 | -31.94023 | -60.57836 | 9870 ft | 297 kts | 161° |
| 2026-05-04 23:08 | -31.95970 | -60.56892 | 10469 ft | 310 kts | 161° |
| 2026-05-04 23:08 | -31.98023 | -60.55884 | 10901 ft | 327 kts | 161° |
| 2026-05-04 23:08 | -32.00155 | -60.54837 | 11446 ft | 338 kts | 161° |
| 2026-05-04 23:09 | -32.02346 | -60.53767 | 12215 ft | 341 kts | 161° |
| 2026-05-04 23:09 | -32.04535 | -60.52702 | 12947 ft | 347 kts | 161° |
| 2026-05-04 23:09 | -32.06777 | -60.51611 | 13701 ft | 351 kts | 161° |
| 2026-05-04 23:09 | -32.09057 | -60.50502 | 14389 ft | 355 kts | 162° |
| 2026-05-04 23:10 | -32.11349 | -60.49387 | 15083 ft | 359 kts | 162° |
| 2026-05-04 23:10 | -32.13669 | -60.48257 | 15750 ft | 364 kts | 162° |
| 2026-05-04 23:10 | -32.16024 | -60.47110 | 16410 ft | 368 kts | 162° |
| 2026-05-04 23:10 | -32.18406 | -60.45949 | 17061 ft | 373 kts | 163° |
| 2026-05-04 23:11 | -32.20821 | -60.44772 | 17714 ft | 377 kts | 163° |
| 2026-05-04 23:11 | -32.23257 | -60.43583 | 18330 ft | 381 kts | 163° |
| 2026-05-04 23:11 | -32.25695 | -60.42392 | 18865 ft | 385 kts | 163° |
| 2026-05-04 23:11 | -32.28192 | -60.41172 | 19422 ft | 389 kts | 163° |
| 2026-05-04 23:12 | -32.30699 | -60.39948 | 19977 ft | 393 kts | 163° |
| 2026-05-04 23:12 | -32.33246 | -60.38701 | 20519 ft | 396 kts | 163° |
| 2026-05-04 23:12 | -32.35793 | -60.37455 | 21054 ft | 400 kts | 163° |
| 2026-05-04 23:12 | -32.38355 | -60.36201 | 21579 ft | 404 kts | 163° |
| 2026-05-04 23:13 | -32.40968 | -60.34920 | 22108 ft | 408 kts | 163° |
| 2026-05-04 23:13 | -32.43601 | -60.33630 | 22628 ft | 411 kts | 163° |
| 2026-05-04 23:13 | -32.46263 | -60.32324 | 23145 ft | 415 kts | 163° |
| 2026-05-04 23:13 | -32.48946 | -60.31007 | 23625 ft | 419 kts | 163° |
| 2026-05-04 23:14 | -32.51647 | -60.29680 | 24093 ft | 421 kts | 163° |
| 2026-05-04 23:14 | -32.54364 | -60.28345 | 24548 ft | 424 kts | 163° |
| 2026-05-04 23:14 | -32.57092 | -60.27004 | 24988 ft | 426 kts | 163° |
| 2026-05-04 23:14 | -32.59802 | -60.25671 | 25420 ft | 428 kts | 163° |
| 2026-05-04 23:15 | -32.62601 | -60.24293 | 25855 ft | 431 kts | 163° |
| 2026-05-04 23:15 | -32.65377 | -60.22925 | 26273 ft | 433 kts | 163° |
| 2026-05-04 23:15 | -32.68131 | -60.21567 | 26686 ft | 436 kts | 163° |
| 2026-05-04 23:15 | -32.70947 | -60.20179 | 27107 ft | 438 kts | 163° |
| 2026-05-04 23:16 | -32.73772 | -60.18780 | 27500 ft | 441 kts | 162° |
| 2026-05-04 23:16 | -32.76465 | -60.16932 | 27910 ft | 454 kts | 147° |
| 2026-05-04 23:16 | -32.78947 | -60.14595 | 28348 ft | 455 kts | 149° |
| 2026-05-04 23:16 | -32.81486 | -60.12338 | 28709 ft | 458 kts | 149° |
| 2026-05-04 23:17 | -32.84047 | -60.10075 | 29077 ft | 460 kts | 149° |
| 2026-05-04 23:17 | -32.86621 | -60.07801 | 29456 ft | 462 kts | 149° |
| 2026-05-04 23:17 | -32.89219 | -60.05506 | 29812 ft | 465 kts | 149° |
| 2026-05-04 23:17 | -32.91788 | -60.03236 | 29931 ft | 468 kts | 149° |
| 2026-05-04 23:18 | -32.94363 | -60.00954 | 29937 ft | 454 kts | 149° |
| 2026-05-04 23:18 | -32.96861 | -59.98740 | 29931 ft | 439 kts | 150° |
| 2026-05-04 23:18 | -33.01729 | -59.94426 | 29897 ft | 435 kts | 150° |
| 2026-05-04 23:19 | -33.04154 | -59.92274 | 29451 ft | 435 kts | 150° |
| 2026-05-04 23:19 | -33.06610 | -59.90095 | 28444 ft | 445 kts | 149° |
| 2026-05-04 23:19 | -33.09120 | -59.87867 | 27490 ft | 454 kts | 149° |
| 2026-05-04 23:19 | -33.11678 | -59.85594 | 26749 ft | 457 kts | 149° |
| 2026-05-04 23:20 | -33.14208 | -59.83341 | 26336 ft | 451 kts | 149° |
| 2026-05-04 23:20 | -33.16709 | -59.81113 | 25905 ft | 446 kts | 149° |
| 2026-05-04 23:20 | -33.19197 | -59.78896 | 25428 ft | 443 kts | 149° |
| 2026-05-04 23:20 | -33.20819 | -59.77450 | 25119 ft | 441 kts | 149° |
| 2026-05-04 23:21 | -33.23264 | -59.75268 | 24655 ft | 439 kts | 149° |
| 2026-05-04 23:21 | -33.25705 | -59.73089 | 24199 ft | 436 kts | 149° |
| 2026-05-04 23:21 | -33.28920 | -59.70217 | 23625 ft | 434 kts | 149° |
| 2026-05-04 23:21 | -33.31332 | -59.68059 | 23105 ft | 432 kts | 149° |
| 2026-05-04 23:22 | -33.32956 | -59.66606 | 22773 ft | 430 kts | 149° |
| 2026-05-04 23:22 | -33.35313 | -59.64495 | 22339 ft | 426 kts | 149° |
| 2026-05-04 23:22 | -33.38468 | -59.61668 | 21765 ft | 421 kts | 149° |
| 2026-05-04 23:22 | -33.40020 | -59.60276 | 21482 ft | 419 kts | 149° |
| 2026-05-04 23:23 | -33.42335 | -59.58199 | 21060 ft | 415 kts | 149° |
| 2026-05-04 23:23 | -33.44638 | -59.56131 | 20639 ft | 412 kts | 149° |
| 2026-05-04 23:23 | -33.46938 | -59.54064 | 20236 ft | 410 kts | 149° |
| 2026-05-04 23:23 | -33.49208 | -59.52024 | 19813 ft | 408 kts | 149° |
| 2026-05-04 23:24 | -33.51451 | -59.50006 | 19402 ft | 405 kts | 149° |
| 2026-05-04 23:24 | -33.53709 | -59.47973 | 18988 ft | 403 kts | 149° |
| 2026-05-04 23:24 | -33.55947 | -59.45957 | 18579 ft | 401 kts | 149° |
| 2026-05-04 23:24 | -33.58174 | -59.43949 | 18170 ft | 400 kts | 149° |
| 2026-05-04 23:25 | -33.60399 | -59.41941 | 17709 ft | 397 kts | 149° |
| 2026-05-04 23:25 | -33.62591 | -59.39964 | 17293 ft | 394 kts | 148° |
| 2026-05-04 23:25 | -33.64746 | -59.38016 | 16908 ft | 391 kts | 148° |
| 2026-05-04 23:25 | -33.66940 | -59.36034 | 16493 ft | 388 kts | 148° |
| 2026-05-04 23:26 | -33.69083 | -59.34095 | 16085 ft | 382 kts | 148° |
| 2026-05-04 23:26 | -33.71149 | -59.32225 | 15718 ft | 368 kts | 149° |
| 2026-05-04 23:26 | -33.73156 | -59.30403 | 15344 ft | 356 kts | 148° |
| 2026-05-04 23:26 | -33.75101 | -59.28641 | 14986 ft | 344 kts | 148° |
| 2026-05-04 23:27 | -33.76997 | -59.26923 | 14633 ft | 339 kts | 148° |
| 2026-05-04 23:27 | -33.78888 | -59.25209 | 14266 ft | 338 kts | 148° |
| 2026-05-04 23:27 | -33.80766 | -59.23505 | 13907 ft | 338 kts | 148° |
| 2026-05-04 23:27 | -33.82634 | -59.21809 | 13512 ft | 337 kts | 148° |
| 2026-05-04 23:28 | -33.84478 | -59.20135 | 13152 ft | 336 kts | 148° |
| 2026-05-04 23:28 | -33.86337 | -59.18444 | 12789 ft | 334 kts | 148° |
| 2026-05-04 23:28 | -33.88186 | -59.16761 | 12449 ft | 331 kts | 148° |
| 2026-05-04 23:28 | -33.90016 | -59.15096 | 12107 ft | 329 kts | 148° |
| 2026-05-04 23:29 | -33.91836 | -59.13438 | 11775 ft | 327 kts | 148° |
| 2026-05-04 23:29 | -33.93645 | -59.11791 | 11429 ft | 325 kts | 148° |
| 2026-05-04 23:29 | -33.95448 | -59.10147 | 11093 ft | 323 kts | 148° |
| 2026-05-04 23:29 | -33.97240 | -59.08513 | 10772 ft | 321 kts | 147° |
| 2026-05-04 23:30 | -33.99015 | -59.06892 | 10438 ft | 319 kts | 147° |
| 2026-05-04 23:30 | -34.00742 | -59.05316 | 10244 ft | 313 kts | 147° |
| 2026-05-04 23:30 | -34.02455 | -59.03751 | 10106 ft | 305 kts | 148° |
| 2026-05-04 23:30 | -34.04126 | -59.02223 | 9953 ft | 297 kts | 148° |
| 2026-05-04 23:31 | -34.05761 | -59.00728 | 9677 ft | 294 kts | 148° |
| 2026-05-04 23:31 | -34.07394 | -58.99233 | 9328 ft | 293 kts | 147° |
| 2026-05-04 23:31 | -34.09015 | -58.97749 | 9007 ft | 292 kts | 147° |
| 2026-05-04 23:31 | -34.10628 | -58.96271 | 8693 ft | 291 kts | 147° |
| 2026-05-04 23:32 | -34.12237 | -58.94797 | 8381 ft | 289 kts | 146° |
| 2026-05-04 23:32 | -34.13841 | -58.93327 | 8081 ft | 288 kts | 146° |
| 2026-05-04 23:32 | -34.15415 | -58.91883 | 7780 ft | 287 kts | 146° |
| 2026-05-04 23:32 | -34.17002 | -58.90427 | 7475 ft | 286 kts | 146° |
| 2026-05-04 23:33 | -34.18577 | -58.88981 | 7175 ft | 285 kts | 145° |
| 2026-05-04 23:33 | -34.20156 | -58.87532 | 6872 ft | 284 kts | 145° |
| 2026-05-04 23:33 | -34.21726 | -58.86088 | 6571 ft | 284 kts | 144° |
| 2026-05-04 23:33 | -34.23301 | -58.84640 | 6254 ft | 284 kts | 144° |
| 2026-05-04 23:34 | -34.24874 | -58.83194 | 5921 ft | 284 kts | 144° |
| 2026-05-04 23:34 | -34.26446 | -58.81748 | 5604 ft | 283 kts | 144° |
| 2026-05-04 23:34 | -34.28011 | -58.80307 | 5314 ft | 281 kts | 144° |
| 2026-05-04 23:34 | -34.29552 | -58.78888 | 5153 ft | 274 kts | 144° |
| 2026-05-04 23:35 | -34.31045 | -58.77512 | 5033 ft | 266 kts | 144° |
| 2026-05-04 23:35 | -34.32478 | -58.76168 | 4964 ft | 255 kts | 140° |
| 2026-05-04 23:35 | -34.33714 | -58.74660 | 4778 ft | 251 kts | 134° |
| 2026-05-04 23:35 | -34.34895 | -58.73149 | 4527 ft | 249 kts | 135° |
| 2026-05-04 23:36 | -34.36101 | -58.71632 | 4267 ft | 246 kts | 135° |
| 2026-05-04 23:36 | -34.37269 | -58.70173 | 4048 ft | 242 kts | 135° |
| 2026-05-04 23:36 | -34.38452 | -58.68705 | 3839 ft | 238 kts | 135° |
| 2026-05-04 23:36 | -34.39603 | -58.67282 | 3644 ft | 238 kts | 135° |
| 2026-05-04 23:37 | -34.40769 | -58.65843 | 3454 ft | 239 kts | 135° |
| 2026-05-04 23:37 | -34.41933 | -58.64409 | 3277 ft | 238 kts | 135° |
| 2026-05-04 23:37 | -34.43091 | -58.62981 | 3095 ft | 237 kts | 135° |
| 2026-05-04 23:37 | -34.44231 | -58.61565 | 2971 ft | 235 kts | 134° |
| 2026-05-04 23:38 | -34.45354 | -58.60135 | 2941 ft | 234 kts | 131° |
| 2026-05-04 23:38 | -34.46379 | -58.58599 | 2961 ft | 235 kts | 126° |
| 2026-05-04 23:38 | -34.47338 | -58.56985 | 2765 ft | 236 kts | 124° |
| 2026-05-04 23:38 | -34.48245 | -58.55377 | 2523 ft | 229 kts | 123° |
| 2026-05-04 23:39 | -34.49117 | -58.53808 | 2208 ft | 218 kts | 122° |
| 2026-05-04 23:39 | -34.49921 | -58.52364 | 1938 ft | 195 kts | 122° |
| 2026-05-04 23:39 | -34.50655 | -58.51047 | 1683 ft | 182 kts | 122° |
| 2026-05-04 23:39 | -34.51323 | -58.49848 | 1460 ft | 165 kts | 121° |
| 2026-05-04 23:40 | -34.51947 | -58.48726 | 1262 ft | 161 kts | 121° |
| 2026-05-04 23:40 | -34.52577 | -58.47595 | 1037 ft | 159 kts | 122° |
| 2026-05-04 23:40 | -34.53187 | -58.46505 | 837 ft | 157 kts | 122° |
| 2026-05-04 23:40 | -34.53794 | -58.45415 | 636 ft | 154 kts | 122° |
| 2026-05-04 23:41 | -34.54389 | -58.44335 | 417 ft | 153 kts | 123° |
| 2026-05-04 23:41 | -34.54980 | -58.43271 | 218 ft | 152 kts | 123° |
| 2026-05-04 23:41 | -34.55565 | -58.42218 | 32 ft | 144 kts | 122° |
| 2026-05-04 23:41 | -34.56022 | -58.41402 | 27 ft | 83 kts | 124° |
| 2026-05-04 23:42 | -34.56291 | -58.40920 | 28 ft | 57 kts | 124° |
| 2026-05-04 23:42 | -34.56405 | -58.40689 | 28 ft | 17 kts | 83° |
| 2026-05-04 23:42 | -34.56332 | -58.40687 | 28 ft | 13 kts | 317° |
| 2026-05-04 23:42 | -34.56265 | -58.40759 | 28 ft | 10 kts | 318° |
| 2026-05-04 23:43 | -34.56206 | -58.40823 | 28 ft | 13 kts | 317° |
| 2026-05-04 23:43 | -34.56156 | -58.40919 | 28 ft | 15 kts | 299° |
| 2026-05-04 23:43 | -34.56095 | -58.41029 | 28 ft | 17 kts | 308° |
| 2026-05-04 23:43 | -34.56019 | -58.41149 | 28 ft | 19 kts | 307° |
| 2026-05-04 23:44 | -34.55936 | -58.41282 | 28 ft | 21 kts | 304° |
| 2026-05-04 23:44 | -34.55869 | -58.41434 | 28 ft | 21 kts | 297° |
| 2026-05-04 23:44 | -34.55809 | -58.41576 | 28 ft | 15 kts | 296° |
| 2026-05-04 23:44 | -34.55766 | -58.41681 | 28 ft | 15 kts | 296° |
| 2026-05-04 23:45 | -34.55713 | -58.41799 | 28 ft | 17 kts | 304° |
| 2026-05-04 23:45 | -34.55667 | -58.41869 | 28 ft | 8 kts | 337° |
| 2026-05-04 23:45 | -34.55614 | -58.41838 | 28 ft | 10 kts | 38° |
| 2026-05-04 23:45 | -34.55615 | -58.41787 | 28 ft | 3 kts | 96° |
| 2026-05-04 23:46 | -34.55605 | -58.41775 | 28 ft | 3 kts | 33° |
| 2026-05-04 23:46 | -34.55583 | -58.41758 | 28 ft | 4 kts | 33° |
| 2026-05-04 23:46 | -34.55562 | -58.41741 | 28 ft | 5 kts | 34° |
| 2026-05-04 23:46 | -34.55550 | -58.41731 | 28 ft | 1 kts | 34° |
| 2026-05-04 23:47 | -34.55548 | -58.41729 | 28 ft | 0 kts | 33° |
| 2026-05-04 23:47 | -34.55543 | -58.41725 | 28 ft | 0 kts | 34° |